sensor_id;sensor_type;location;lat;lon;timestamp;P1;durP1;ratioP1;P2;durP2;ratioP2
59734;SDS011;64362;45.620;4.920;2023-11-18T00:00:50;2.67;;;1.60;;
59734;SDS011;64362;45.620;4.920;2023-11-18T00:03:16;2.97;;;1.60;;
59734;SDS011;64362;45.620;4.920;2023-11-18T00:05:42;1.90;;;1.15;;
59734;SDS011;64362;45.620;4.920;2023-11-18T00:08:07;3.28;;;1.70;;
59734;SDS011;64362;45.620;4.920;2023-11-18T00:10:32;2.60;;;1.50;;
59734;SDS011;64362;45.620;4.920;2023-11-18T00:12:58;2.15;;;1.23;;
59734;SDS011;64362;45.620;4.920;2023-11-18T00:15:23;2.40;;;1.10;;
59734;SDS011;64362;45.620;4.920;2023-11-18T00:17:49;2.92;;;1.40;;
59734;SDS011;64362;45.620;4.920;2023-11-18T00:20:14;2.38;;;1.55;;
59734;SDS011;64362;45.620;4.920;2023-11-18T00:22:41;2.33;;;1.40;;
59734;SDS011;64362;45.620;4.920;2023-11-18T00:25:07;2.83;;;1.40;;
59734;SDS011;64362;45.620;4.920;2023-11-18T00:27:34;2.13;;;1.67;;
59734;SDS011;64362;45.620;4.920;2023-11-18T00:30:05;2.40;;;1.50;;
59734;SDS011;64362;45.620;4.920;2023-11-18T00:32:33;2.25;;;1.60;;
59734;SDS011;64362;45.620;4.920;2023-11-18T00:34:59;3.35;;;1.60;;
59734;SDS011;64362;45.620;4.920;2023-11-18T00:37:25;1.98;;;1.35;;
59734;SDS011;64362;45.620;4.920;2023-11-18T00:39:52;2.13;;;1.40;;
59734;SDS011;64362;45.620;4.920;2023-11-18T00:42:19;2.40;;;1.52;;
59734;SDS011;64362;45.620;4.920;2023-11-18T00:44:44;2.22;;;1.30;;
59734;SDS011;64362;45.620;4.920;2023-11-18T00:47:10;2.28;;;1.20;;
59734;SDS011;64362;45.620;4.920;2023-11-18T00:49:35;2.42;;;1.40;;
59734;SDS011;64362;45.620;4.920;2023-11-18T00:52:01;2.42;;;1.33;;
59734;SDS011;64362;45.620;4.920;2023-11-18T00:54:27;2.55;;;1.60;;
59734;SDS011;64362;45.620;4.920;2023-11-18T00:56:53;2.50;;;1.38;;
59734;SDS011;64362;45.620;4.920;2023-11-18T00:59:18;2.03;;;1.33;;
59734;SDS011;64362;45.620;4.920;2023-11-18T01:01:44;2.20;;;1.50;;
59734;SDS011;64362;45.620;4.920;2023-11-18T01:04:09;2.35;;;1.60;;
59734;SDS011;64362;45.620;4.920;2023-11-18T01:06:36;2.10;;;1.27;;
59734;SDS011;64362;45.620;4.920;2023-11-18T01:09:01;2.10;;;1.27;;
59734;SDS011;64362;45.620;4.920;2023-11-18T01:11:27;2.50;;;1.42;;
59734;SDS011;64362;45.620;4.920;2023-11-18T01:13:52;2.03;;;1.15;;
59734;SDS011;64362;45.620;4.920;2023-11-18T01:16:19;2.05;;;1.35;;
59734;SDS011;64362;45.620;4.920;2023-11-18T01:18:45;2.05;;;1.20;;
59734;SDS011;64362;45.620;4.920;2023-11-18T01:21:11;2.25;;;1.42;;
59734;SDS011;64362;45.620;4.920;2023-11-18T01:23:36;1.42;;;0.98;;
59734;SDS011;64362;45.620;4.920;2023-11-18T01:26:03;1.65;;;1.10;;
59734;SDS011;64362;45.620;4.920;2023-11-18T01:28:34;3.50;;;1.50;;
59734;SDS011;64362;45.620;4.920;2023-11-18T01:31:04;1.90;;;1.10;;
59734;SDS011;64362;45.620;4.920;2023-11-18T01:33:30;1.85;;;1.10;;
59734;SDS011;64362;45.620;4.920;2023-11-18T01:35:57;1.92;;;1.27;;
59734;SDS011;64362;45.620;4.920;2023-11-18T01:38:23;2.70;;;1.40;;
59734;SDS011;64362;45.620;4.920;2023-11-18T01:40:48;1.63;;;1.17;;
59734;SDS011;64362;45.620;4.920;2023-11-18T01:43:14;1.95;;;1.25;;
59734;SDS011;64362;45.620;4.920;2023-11-18T01:45:42;1.70;;;1.10;;
59734;SDS011;64362;45.620;4.920;2023-11-18T01:48:08;1.80;;;1.27;;
59734;SDS011;64362;45.620;4.920;2023-11-18T01:50:38;2.20;;;1.27;;
59734;SDS011;64362;45.620;4.920;2023-11-18T01:53:07;1.70;;;1.10;;
59734;SDS011;64362;45.620;4.920;2023-11-18T01:55:33;2.08;;;1.13;;
59734;SDS011;64362;45.620;4.920;2023-11-18T01:58:00;1.83;;;1.02;;
59734;SDS011;64362;45.620;4.920;2023-11-18T02:00:33;2.25;;;1.27;;
59734;SDS011;64362;45.620;4.920;2023-11-18T02:03:00;2.20;;;1.35;;
59734;SDS011;64362;45.620;4.920;2023-11-18T02:05:26;2.50;;;1.42;;
59734;SDS011;64362;45.620;4.920;2023-11-18T02:07:51;2.05;;;1.17;;
59734;SDS011;64362;45.620;4.920;2023-11-18T02:10:17;2.38;;;1.33;;
59734;SDS011;64362;45.620;4.920;2023-11-18T02:12:44;1.90;;;1.20;;
59734;SDS011;64362;45.620;4.920;2023-11-18T02:15:14;1.60;;;1.08;;
59734;SDS011;64362;45.620;4.920;2023-11-18T02:17:39;2.03;;;1.27;;
59734;SDS011;64362;45.620;4.920;2023-11-18T02:20:07;2.25;;;1.33;;
59734;SDS011;64362;45.620;4.920;2023-11-18T02:22:43;2.08;;;1.40;;
59734;SDS011;64362;45.620;4.920;2023-11-18T02:25:14;2.30;;;1.30;;
59734;SDS011;64362;45.620;4.920;2023-11-18T02:27:40;1.98;;;1.23;;
59734;SDS011;64362;45.620;4.920;2023-11-18T02:30:07;2.17;;;1.30;;
59734;SDS011;64362;45.620;4.920;2023-11-18T02:32:39;3.25;;;1.23;;
59734;SDS011;64362;45.620;4.920;2023-11-18T02:37:45;1.70;;;1.10;;
59734;SDS011;64362;45.620;4.920;2023-11-18T02:40:13;1.98;;;1.15;;
59734;SDS011;64362;45.620;4.920;2023-11-18T02:42:42;2.35;;;1.30;;
59734;SDS011;64362;45.620;4.920;2023-11-18T02:45:09;2.15;;;1.30;;
59734;SDS011;64362;45.620;4.920;2023-11-18T02:47:37;2.70;;;1.50;;
59734;SDS011;64362;45.620;4.920;2023-11-18T02:50:04;1.90;;;1.17;;
59734;SDS011;64362;45.620;4.920;2023-11-18T02:52:36;2.40;;;1.17;;
59734;SDS011;64362;45.620;4.920;2023-11-18T02:55:08;1.52;;;1.13;;
59734;SDS011;64362;45.620;4.920;2023-11-18T02:57:37;2.15;;;1.15;;
59734;SDS011;64362;45.620;4.920;2023-11-18T03:00:06;2.72;;;1.30;;
59734;SDS011;64362;45.620;4.920;2023-11-18T03:02:41;2.20;;;1.40;;
59734;SDS011;64362;45.620;4.920;2023-11-18T03:05:07;2.20;;;1.30;;
59734;SDS011;64362;45.620;4.920;2023-11-18T03:07:36;1.98;;;1.08;;
59734;SDS011;64362;45.620;4.920;2023-11-18T03:10:02;1.75;;;1.00;;
59734;SDS011;64362;45.620;4.920;2023-11-18T03:12:34;1.58;;;1.00;;
59734;SDS011;64362;45.620;4.920;2023-11-18T03:15:00;1.98;;;1.02;;
59734;SDS011;64362;45.620;4.920;2023-11-18T03:17:26;1.90;;;1.20;;
59734;SDS011;64362;45.620;4.920;2023-11-18T03:19:51;2.47;;;1.70;;
59734;SDS011;64362;45.620;4.920;2023-11-18T03:22:17;2.33;;;1.27;;
59734;SDS011;64362;45.620;4.920;2023-11-18T03:24:42;2.20;;;1.13;;
59734;SDS011;64362;45.620;4.920;2023-11-18T03:27:08;2.45;;;1.30;;
59734;SDS011;64362;45.620;4.920;2023-11-18T03:29:34;2.80;;;1.20;;
59734;SDS011;64362;45.620;4.920;2023-11-18T03:31:59;2.42;;;1.30;;
59734;SDS011;64362;45.620;4.920;2023-11-18T03:34:25;2.28;;;1.20;;
59734;SDS011;64362;45.620;4.920;2023-11-18T03:36:50;1.70;;;1.15;;
59734;SDS011;64362;45.620;4.920;2023-11-18T03:39:17;2.30;;;1.30;;
59734;SDS011;64362;45.620;4.920;2023-11-18T03:41:42;2.05;;;1.20;;
59734;SDS011;64362;45.620;4.920;2023-11-18T03:44:13;2.10;;;1.40;;
59734;SDS011;64362;45.620;4.920;2023-11-18T03:46:39;2.28;;;1.35;;
59734;SDS011;64362;45.620;4.920;2023-11-18T03:49:06;2.15;;;1.10;;
59734;SDS011;64362;45.620;4.920;2023-11-18T03:51:31;2.63;;;1.45;;
59734;SDS011;64362;45.620;4.920;2023-11-18T03:53:57;2.28;;;1.40;;
59734;SDS011;64362;45.620;4.920;2023-11-18T03:56:22;2.30;;;1.42;;
59734;SDS011;64362;45.620;4.920;2023-11-18T03:58:48;1.92;;;1.20;;
59734;SDS011;64362;45.620;4.920;2023-11-18T04:01:23;1.77;;;1.30;;
59734;SDS011;64362;45.620;4.920;2023-11-18T04:03:52;2.25;;;1.27;;
59734;SDS011;64362;45.620;4.920;2023-11-18T04:06:18;2.60;;;1.40;;
59734;SDS011;64362;45.620;4.920;2023-11-18T04:08:46;1.83;;;1.20;;
59734;SDS011;64362;45.620;4.920;2023-11-18T04:11:15;1.98;;;1.10;;
59734;SDS011;64362;45.620;4.920;2023-11-18T04:13:40;1.77;;;1.00;;
59734;SDS011;64362;45.620;4.920;2023-11-18T04:16:12;2.05;;;1.30;;
59734;SDS011;64362;45.620;4.920;2023-11-18T04:18:41;1.70;;;1.20;;
59734;SDS011;64362;45.620;4.920;2023-11-18T04:21:07;2.42;;;1.10;;
59734;SDS011;64362;45.620;4.920;2023-11-18T04:23:37;2.40;;;1.35;;
59734;SDS011;64362;45.620;4.920;2023-11-18T04:26:06;2.55;;;1.30;;
59734;SDS011;64362;45.620;4.920;2023-11-18T04:28:35;2.20;;;1.38;;
59734;SDS011;64362;45.620;4.920;2023-11-18T04:31:02;2.20;;;1.33;;
59734;SDS011;64362;45.620;4.920;2023-11-18T04:33:28;2.38;;;1.38;;
59734;SDS011;64362;45.620;4.920;2023-11-18T04:35:54;2.17;;;1.35;;
59734;SDS011;64362;45.620;4.920;2023-11-18T04:38:22;2.05;;;1.40;;
59734;SDS011;64362;45.620;4.920;2023-11-18T04:40:48;2.53;;;1.30;;
59734;SDS011;64362;45.620;4.920;2023-11-18T04:43:13;2.53;;;1.00;;
59734;SDS011;64362;45.620;4.920;2023-11-18T04:45:39;2.00;;;1.10;;
59734;SDS011;64362;45.620;4.920;2023-11-18T04:48:04;2.20;;;1.40;;
59734;SDS011;64362;45.620;4.920;2023-11-18T04:50:30;2.00;;;1.40;;
59734;SDS011;64362;45.620;4.920;2023-11-18T04:52:57;2.00;;;1.38;;
59734;SDS011;64362;45.620;4.920;2023-11-18T04:55:23;1.67;;;1.30;;
59734;SDS011;64362;45.620;4.920;2023-11-18T04:57:49;2.50;;;1.17;;
59734;SDS011;64362;45.620;4.920;2023-11-18T05:00:14;2.10;;;1.20;;
59734;SDS011;64362;45.620;4.920;2023-11-18T05:02:42;2.45;;;1.20;;
59734;SDS011;64362;45.620;4.920;2023-11-18T05:05:08;2.00;;;1.30;;
59734;SDS011;64362;45.620;4.920;2023-11-18T05:07:34;2.53;;;1.58;;
59734;SDS011;64362;45.620;4.920;2023-11-18T05:10:00;1.70;;;1.13;;
59734;SDS011;64362;45.620;4.920;2023-11-18T05:12:26;2.00;;;1.15;;
59734;SDS011;64362;45.620;4.920;2023-11-18T05:14:54;1.80;;;1.10;;
59734;SDS011;64362;45.620;4.920;2023-11-18T05:17:20;2.10;;;1.17;;
59734;SDS011;64362;45.620;4.920;2023-11-18T05:19:45;2.42;;;1.45;;
59734;SDS011;64362;45.620;4.920;2023-11-18T05:22:10;2.28;;;1.25;;
59734;SDS011;64362;45.620;4.920;2023-11-18T05:24:36;2.40;;;1.15;;
59734;SDS011;64362;45.620;4.920;2023-11-18T05:27:01;1.75;;;1.10;;
59734;SDS011;64362;45.620;4.920;2023-11-18T05:29:27;1.98;;;1.50;;
59734;SDS011;64362;45.620;4.920;2023-11-18T05:31:53;2.03;;;1.25;;
59734;SDS011;64362;45.620;4.920;2023-11-18T05:34:20;1.95;;;1.17;;
59734;SDS011;64362;45.620;4.920;2023-11-18T05:36:46;2.40;;;1.48;;
59734;SDS011;64362;45.620;4.920;2023-11-18T05:39:12;1.85;;;1.10;;
59734;SDS011;64362;45.620;4.920;2023-11-18T05:41:40;1.95;;;1.10;;
59734;SDS011;64362;45.620;4.920;2023-11-18T05:44:06;1.98;;;1.38;;
59734;SDS011;64362;45.620;4.920;2023-11-18T05:46:34;1.73;;;1.10;;
59734;SDS011;64362;45.620;4.920;2023-11-18T05:49:03;2.00;;;1.35;;
59734;SDS011;64362;45.620;4.920;2023-11-18T05:51:33;1.85;;;1.27;;
59734;SDS011;64362;45.620;4.920;2023-11-18T05:53:58;1.88;;;1.10;;
59734;SDS011;64362;45.620;4.920;2023-11-18T05:56:24;2.10;;;1.27;;
59734;SDS011;64362;45.620;4.920;2023-11-18T05:58:50;2.47;;;1.30;;
59734;SDS011;64362;45.620;4.920;2023-11-18T06:01:18;2.05;;;1.38;;
59734;SDS011;64362;45.620;4.920;2023-11-18T06:03:43;1.92;;;1.15;;
59734;SDS011;64362;45.620;4.920;2023-11-18T06:06:10;1.80;;;1.20;;
59734;SDS011;64362;45.620;4.920;2023-11-18T06:08:36;1.95;;;1.25;;
59734;SDS011;64362;45.620;4.920;2023-11-18T06:11:06;2.47;;;1.45;;
59734;SDS011;64362;45.620;4.920;2023-11-18T06:13:41;2.22;;;1.23;;
59734;SDS011;64362;45.620;4.920;2023-11-18T06:16:08;2.42;;;1.42;;
59734;SDS011;64362;45.620;4.920;2023-11-18T06:18:47;2.42;;;1.33;;
59734;SDS011;64362;45.620;4.920;2023-11-18T06:21:14;2.75;;;1.48;;
59734;SDS011;64362;45.620;4.920;2023-11-18T06:23:41;3.28;;;1.40;;
59734;SDS011;64362;45.620;4.920;2023-11-18T06:26:07;2.10;;;1.30;;
59734;SDS011;64362;45.620;4.920;2023-11-18T06:28:36;2.70;;;1.70;;
59734;SDS011;64362;45.620;4.920;2023-11-18T06:31:02;1.83;;;1.20;;
59734;SDS011;64362;45.620;4.920;2023-11-18T06:33:28;2.28;;;1.38;;
59734;SDS011;64362;45.620;4.920;2023-11-18T06:35:53;2.70;;;1.30;;
59734;SDS011;64362;45.620;4.920;2023-11-18T06:38:20;2.25;;;1.15;;
59734;SDS011;64362;45.620;4.920;2023-11-18T06:40:46;1.85;;;1.33;;
59734;SDS011;64362;45.620;4.920;2023-11-18T06:43:11;2.05;;;1.20;;
59734;SDS011;64362;45.620;4.920;2023-11-18T06:45:37;1.80;;;1.27;;
59734;SDS011;64362;45.620;4.920;2023-11-18T06:48:08;1.92;;;1.15;;
59734;SDS011;64362;45.620;4.920;2023-11-18T06:50:34;2.00;;;1.23;;
59734;SDS011;64362;45.620;4.920;2023-11-18T06:53:00;1.70;;;1.10;;
59734;SDS011;64362;45.620;4.920;2023-11-18T06:55:26;1.50;;;1.10;;
59734;SDS011;64362;45.620;4.920;2023-11-18T06:57:52;1.80;;;1.20;;
59734;SDS011;64362;45.620;4.920;2023-11-18T07:00:19;1.73;;;1.10;;
59734;SDS011;64362;45.620;4.920;2023-11-18T07:02:47;1.90;;;1.30;;
59734;SDS011;64362;45.620;4.920;2023-11-18T07:05:12;2.17;;;1.30;;
59734;SDS011;64362;45.620;4.920;2023-11-18T07:07:40;1.88;;;1.30;;
59734;SDS011;64362;45.620;4.920;2023-11-18T07:10:07;2.40;;;1.40;;
59734;SDS011;64362;45.620;4.920;2023-11-18T07:12:36;2.60;;;1.33;;
59734;SDS011;64362;45.620;4.920;2023-11-18T07:15:03;2.85;;;1.52;;
59734;SDS011;64362;45.620;4.920;2023-11-18T07:17:29;1.80;;;1.20;;
59734;SDS011;64362;45.620;4.920;2023-11-18T07:19:55;2.10;;;1.50;;
59734;SDS011;64362;45.620;4.920;2023-11-18T07:22:20;2.63;;;1.52;;
59734;SDS011;64362;45.620;4.920;2023-11-18T07:24:46;2.20;;;1.45;;
59734;SDS011;64362;45.620;4.920;2023-11-18T07:27:11;1.92;;;1.38;;
59734;SDS011;64362;45.620;4.920;2023-11-18T07:29:37;2.95;;;2.05;;
59734;SDS011;64362;45.620;4.920;2023-11-18T07:32:02;2.38;;;1.67;;
59734;SDS011;64362;45.620;4.920;2023-11-18T07:34:33;1.85;;;1.35;;
59734;SDS011;64362;45.620;4.920;2023-11-18T07:36:59;2.17;;;1.67;;
59734;SDS011;64362;45.620;4.920;2023-11-18T07:39:24;2.17;;;1.55;;
59734;SDS011;64362;45.620;4.920;2023-11-18T07:42:03;2.95;;;1.67;;
59734;SDS011;64362;45.620;4.920;2023-11-18T07:44:30;2.60;;;1.83;;
59734;SDS011;64362;45.620;4.920;2023-11-18T07:46:58;2.58;;;1.48;;
59734;SDS011;64362;45.620;4.920;2023-11-18T07:49:23;3.05;;;1.92;;
59734;SDS011;64362;45.620;4.920;2023-11-18T07:51:51;2.90;;;1.95;;
59734;SDS011;64362;45.620;4.920;2023-11-18T07:54:17;2.70;;;1.67;;
59734;SDS011;64362;45.620;4.920;2023-11-18T07:56:43;2.80;;;1.73;;
59734;SDS011;64362;45.620;4.920;2023-11-18T07:59:11;2.50;;;1.85;;
59734;SDS011;64362;45.620;4.920;2023-11-18T08:01:44;2.28;;;1.75;;
59734;SDS011;64362;45.620;4.920;2023-11-18T08:04:11;3.03;;;1.80;;
59734;SDS011;64362;45.620;4.920;2023-11-18T08:06:41;2.83;;;1.75;;
59734;SDS011;64362;45.620;4.920;2023-11-18T08:09:08;3.30;;;2.03;;
59734;SDS011;64362;45.620;4.920;2023-11-18T08:11:39;2.00;;;1.38;;
59734;SDS011;64362;45.620;4.920;2023-11-18T08:14:09;2.78;;;1.65;;
59734;SDS011;64362;45.620;4.920;2023-11-18T08:16:35;2.47;;;1.60;;
59734;SDS011;64362;45.620;4.920;2023-11-18T08:19:01;2.20;;;1.70;;
59734;SDS011;64362;45.620;4.920;2023-11-18T08:21:33;2.63;;;1.70;;
59734;SDS011;64362;45.620;4.920;2023-11-18T08:23:59;3.15;;;1.92;;
59734;SDS011;64362;45.620;4.920;2023-11-18T08:26:25;2.92;;;2.05;;
59734;SDS011;64362;45.620;4.920;2023-11-18T08:28:51;2.38;;;1.52;;
59734;SDS011;64362;45.620;4.920;2023-11-18T08:31:17;3.33;;;2.20;;
59734;SDS011;64362;45.620;4.920;2023-11-18T08:33:42;3.33;;;2.28;;
59734;SDS011;64362;45.620;4.920;2023-11-18T08:36:08;3.75;;;2.08;;
59734;SDS011;64362;45.620;4.920;2023-11-18T08:38:34;3.47;;;2.10;;
59734;SDS011;64362;45.620;4.920;2023-11-18T08:41:00;2.90;;;2.10;;
59734;SDS011;64362;45.620;4.920;2023-11-18T08:43:25;2.80;;;1.90;;
59734;SDS011;64362;45.620;4.920;2023-11-18T08:45:53;3.95;;;2.13;;
59734;SDS011;64362;45.620;4.920;2023-11-18T08:48:19;3.15;;;2.10;;
59734;SDS011;64362;45.620;4.920;2023-11-18T08:50:45;2.60;;;2.10;;
59734;SDS011;64362;45.620;4.920;2023-11-18T08:53:11;3.25;;;2.28;;
59734;SDS011;64362;45.620;4.920;2023-11-18T08:55:37;3.35;;;2.00;;
59734;SDS011;64362;45.620;4.920;2023-11-18T08:58:21;3.58;;;2.25;;
59734;SDS011;64362;45.620;4.920;2023-11-18T09:00:51;3.80;;;2.30;;
59734;SDS011;64362;45.620;4.920;2023-11-18T09:03:18;3.67;;;2.53;;
59734;SDS011;64362;45.620;4.920;2023-11-18T09:05:52;3.13;;;2.15;;
59734;SDS011;64362;45.620;4.920;2023-11-18T09:08:34;3.42;;;2.55;;
59734;SDS011;64362;45.620;4.920;2023-11-18T09:11:04;3.33;;;2.20;;
59734;SDS011;64362;45.620;4.920;2023-11-18T09:13:33;3.05;;;2.20;;
59734;SDS011;64362;45.620;4.920;2023-11-18T09:16:02;2.83;;;2.40;;
59734;SDS011;64362;45.620;4.920;2023-11-18T09:18:29;3.58;;;2.20;;
59734;SDS011;64362;45.620;4.920;2023-11-18T09:20:57;2.97;;;1.98;;
59734;SDS011;64362;45.620;4.920;2023-11-18T09:23:26;2.78;;;2.10;;
59734;SDS011;64362;45.620;4.920;2023-11-18T09:25:52;3.55;;;2.28;;
59734;SDS011;64362;45.620;4.920;2023-11-18T09:28:19;2.80;;;1.85;;
59734;SDS011;64362;45.620;4.920;2023-11-18T09:30:45;2.47;;;1.80;;
59734;SDS011;64362;45.620;4.920;2023-11-18T09:33:23;2.85;;;1.95;;
59734;SDS011;64362;45.620;4.920;2023-11-18T09:35:59;3.45;;;1.65;;
59734;SDS011;64362;45.620;4.920;2023-11-18T09:38:26;2.53;;;1.70;;
59734;SDS011;64362;45.620;4.920;2023-11-18T09:40:56;2.65;;;1.85;;
59734;SDS011;64362;45.620;4.920;2023-11-18T09:43:23;2.65;;;1.88;;
59734;SDS011;64362;45.620;4.920;2023-11-18T09:45:50;2.15;;;1.60;;
59734;SDS011;64362;45.620;4.920;2023-11-18T09:48:20;2.50;;;1.88;;
59734;SDS011;64362;45.620;4.920;2023-11-18T09:50:51;3.60;;;1.90;;
59734;SDS011;64362;45.620;4.920;2023-11-18T09:53:17;3.78;;;1.80;;
59734;SDS011;64362;45.620;4.920;2023-11-18T09:55:59;2.63;;;1.88;;
59734;SDS011;64362;45.620;4.920;2023-11-18T09:58:32;2.67;;;1.70;;
59734;SDS011;64362;45.620;4.920;2023-11-18T10:01:06;3.20;;;1.48;;
59734;SDS011;64362;45.620;4.920;2023-11-18T10:03:32;2.35;;;1.55;;
59734;SDS011;64362;45.620;4.920;2023-11-18T10:06:02;2.20;;;1.50;;
59734;SDS011;64362;45.620;4.920;2023-11-18T10:08:30;2.38;;;1.52;;
59734;SDS011;64362;45.620;4.920;2023-11-18T10:10:56;3.13;;;1.60;;
59734;SDS011;64362;45.620;4.920;2023-11-18T10:13:31;2.40;;;1.77;;
59734;SDS011;64362;45.620;4.920;2023-11-18T10:15:59;2.85;;;1.45;;
59734;SDS011;64362;45.620;4.920;2023-11-18T10:18:30;2.47;;;1.40;;
59734;SDS011;64362;45.620;4.920;2023-11-18T10:21:00;3.00;;;1.65;;
59734;SDS011;64362;45.620;4.920;2023-11-18T10:23:26;2.00;;;1.45;;
59734;SDS011;64362;45.620;4.920;2023-11-18T10:25:56;2.53;;;1.55;;
59734;SDS011;64362;45.620;4.920;2023-11-18T10:28:29;2.58;;;1.52;;
59734;SDS011;64362;45.620;4.920;2023-11-18T10:30:58;2.00;;;1.50;;
59734;SDS011;64362;45.620;4.920;2023-11-18T10:33:31;2.53;;;1.60;;
59734;SDS011;64362;45.620;4.920;2023-11-18T10:35:57;3.17;;;1.40;;
59734;SDS011;64362;45.620;4.920;2023-11-18T10:38:23;2.10;;;1.42;;
59734;SDS011;64362;45.620;4.920;2023-11-18T10:40:52;2.45;;;1.38;;
59734;SDS011;64362;45.620;4.920;2023-11-18T10:43:21;2.17;;;1.13;;
59734;SDS011;64362;45.620;4.920;2023-11-18T10:45:50;2.97;;;1.80;;
59734;SDS011;64362;45.620;4.920;2023-11-18T10:48:37;2.05;;;1.40;;
59734;SDS011;64362;45.620;4.920;2023-11-18T10:51:06;1.70;;;1.20;;
59734;SDS011;64362;45.620;4.920;2023-11-18T10:53:32;2.70;;;1.60;;
59734;SDS011;64362;45.620;4.920;2023-11-18T10:55:58;1.92;;;1.23;;
59734;SDS011;64362;45.620;4.920;2023-11-18T10:58:23;2.00;;;1.27;;
59734;SDS011;64362;45.620;4.920;2023-11-18T11:00:50;2.13;;;1.33;;
59734;SDS011;64362;45.620;4.920;2023-11-18T11:03:20;1.92;;;1.35;;
59734;SDS011;64362;45.620;4.920;2023-11-18T11:05:49;2.38;;;1.50;;
59734;SDS011;64362;45.620;4.920;2023-11-18T11:08:15;2.15;;;1.23;;
59734;SDS011;64362;45.620;4.920;2023-11-18T11:10:41;2.53;;;1.33;;
59734;SDS011;64362;45.620;4.920;2023-11-18T11:13:08;2.50;;;1.50;;
59734;SDS011;64362;45.620;4.920;2023-11-18T11:15:35;2.38;;;1.50;;
59734;SDS011;64362;45.620;4.920;2023-11-18T11:18:07;2.58;;;1.55;;
59734;SDS011;64362;45.620;4.920;2023-11-18T11:20:35;2.92;;;1.50;;
59734;SDS011;64362;45.620;4.920;2023-11-18T11:31:14;2.47;;;1.33;;
59734;SDS011;64362;45.620;4.920;2023-11-18T11:33:58;2.72;;;1.85;;
59734;SDS011;64362;45.620;4.920;2023-11-18T11:36:38;2.20;;;1.63;;
59734;SDS011;64362;45.620;4.920;2023-11-18T11:39:08;2.35;;;1.50;;
59734;SDS011;64362;45.620;4.920;2023-11-18T11:41:42;3.20;;;1.80;;
59734;SDS011;64362;45.620;4.920;2023-11-18T11:44:10;2.58;;;1.70;;
59734;SDS011;64362;45.620;4.920;2023-11-18T11:46:37;2.97;;;1.50;;
59734;SDS011;64362;45.620;4.920;2023-11-18T11:49:04;2.92;;;1.67;;
59734;SDS011;64362;45.620;4.920;2023-11-18T11:54:43;2.03;;;1.38;;
59734;SDS011;64362;45.620;4.920;2023-11-18T11:57:13;2.30;;;1.50;;
59734;SDS011;64362;45.620;4.920;2023-11-18T12:02:14;2.58;;;1.30;;
59734;SDS011;64362;45.620;4.920;2023-11-18T12:04:47;3.03;;;1.48;;
59734;SDS011;64362;45.620;4.920;2023-11-18T12:07:17;2.42;;;1.40;;
59734;SDS011;64362;45.620;4.920;2023-11-18T12:09:46;2.70;;;1.50;;
59734;SDS011;64362;45.620;4.920;2023-11-18T12:12:18;2.03;;;1.15;;
59734;SDS011;64362;45.620;4.920;2023-11-18T12:14:51;2.30;;;1.50;;
59734;SDS011;64362;45.620;4.920;2023-11-18T12:20:39;2.40;;;1.50;;
59734;SDS011;64362;45.620;4.920;2023-11-18T12:23:07;2.00;;;1.45;;
59734;SDS011;64362;45.620;4.920;2023-11-18T12:25:42;2.22;;;1.42;;
59734;SDS011;64362;45.620;4.920;2023-11-18T12:28:11;2.42;;;1.63;;
59734;SDS011;64362;45.620;4.920;2023-11-18T12:30:40;2.50;;;1.50;;
59734;SDS011;64362;45.620;4.920;2023-11-18T12:33:17;2.08;;;1.20;;
59734;SDS011;64362;45.620;4.920;2023-11-18T12:41:23;2.17;;;1.40;;
59734;SDS011;64362;45.620;4.920;2023-11-18T12:46:53;3.08;;;1.60;;
59734;SDS011;64362;45.620;4.920;2023-11-18T12:49:23;2.38;;;1.60;;
59734;SDS011;64362;45.620;4.920;2023-11-18T12:51:50;2.35;;;1.48;;
59734;SDS011;64362;45.620;4.920;2023-11-18T12:54:17;2.75;;;1.35;;
59734;SDS011;64362;45.620;4.920;2023-11-18T12:56:44;2.35;;;1.55;;
59734;SDS011;64362;45.620;4.920;2023-11-18T12:59:14;2.58;;;1.50;;
59734;SDS011;64362;45.620;4.920;2023-11-18T13:01:52;2.30;;;1.40;;
59734;SDS011;64362;45.620;4.920;2023-11-18T13:04:24;2.63;;;1.65;;
59734;SDS011;64362;45.620;4.920;2023-11-18T13:06:52;2.03;;;1.25;;
59734;SDS011;64362;45.620;4.920;2023-11-18T13:09:18;2.30;;;1.40;;
59734;SDS011;64362;45.620;4.920;2023-11-18T13:11:59;1.90;;;1.10;;
59734;SDS011;64362;45.620;4.920;2023-11-18T13:14:30;2.58;;;1.30;;
59734;SDS011;64362;45.620;4.920;2023-11-18T13:17:01;2.40;;;1.20;;
59734;SDS011;64362;45.620;4.920;2023-11-18T13:19:30;2.42;;;1.20;;
59734;SDS011;64362;45.620;4.920;2023-11-18T13:21:58;1.92;;;1.15;;
59734;SDS011;64362;45.620;4.920;2023-11-18T13:24:24;2.15;;;1.30;;
59734;SDS011;64362;45.620;4.920;2023-11-18T13:26:52;1.58;;;1.10;;
59734;SDS011;64362;45.620;4.920;2023-11-18T13:29:25;1.90;;;1.20;;
59734;SDS011;64362;45.620;4.920;2023-11-18T13:31:51;2.28;;;1.27;;
59734;SDS011;64362;45.620;4.920;2023-11-18T13:34:19;2.53;;;1.30;;
59734;SDS011;64362;45.620;4.920;2023-11-18T13:36:46;2.00;;;1.25;;
59734;SDS011;64362;45.620;4.920;2023-11-18T13:39:30;2.05;;;1.15;;
59734;SDS011;64362;45.620;4.920;2023-11-18T13:41:56;1.77;;;1.00;;
59734;SDS011;64362;45.620;4.920;2023-11-18T13:44:37;2.10;;;1.30;;
59734;SDS011;64362;45.620;4.920;2023-11-18T13:47:09;1.52;;;1.05;;
59734;SDS011;64362;45.620;4.920;2023-11-18T13:49:37;1.38;;;0.93;;
59734;SDS011;64362;45.620;4.920;2023-11-18T13:52:05;1.83;;;0.90;;
59734;SDS011;64362;45.620;4.920;2023-11-18T13:54:33;1.50;;;0.93;;
59734;SDS011;64362;45.620;4.920;2023-11-18T13:57:00;2.03;;;1.00;;
59734;SDS011;64362;45.620;4.920;2023-11-18T13:59:25;1.55;;;0.88;;
59734;SDS011;64362;45.620;4.920;2023-11-18T14:01:54;2.25;;;1.00;;
59734;SDS011;64362;45.620;4.920;2023-11-18T14:04:27;1.58;;;0.90;;
59734;SDS011;64362;45.620;4.920;2023-11-18T14:06:56;1.77;;;0.90;;
59734;SDS011;64362;45.620;4.920;2023-11-18T14:09:22;1.60;;;0.93;;
59734;SDS011;64362;45.620;4.920;2023-11-18T14:11:50;1.83;;;0.88;;
59734;SDS011;64362;45.620;4.920;2023-11-18T14:14:16;1.48;;;0.95;;
59734;SDS011;64362;45.620;4.920;2023-11-18T14:16:42;1.70;;;1.00;;
59734;SDS011;64362;45.620;4.920;2023-11-18T14:19:08;1.95;;;1.00;;
59734;SDS011;64362;45.620;4.920;2023-11-18T14:21:34;1.98;;;1.10;;
59734;SDS011;64362;45.620;4.920;2023-11-18T14:23:59;1.85;;;1.10;;
59734;SDS011;64362;45.620;4.920;2023-11-18T14:26:28;1.20;;;0.80;;
59734;SDS011;64362;45.620;4.920;2023-11-18T14:28:55;1.75;;;0.98;;
59734;SDS011;64362;45.620;4.920;2023-11-18T14:31:21;1.67;;;0.80;;
59734;SDS011;64362;45.620;4.920;2023-11-18T14:33:47;1.55;;;0.95;;
59734;SDS011;64362;45.620;4.920;2023-11-18T14:36:13;1.85;;;1.08;;
59734;SDS011;64362;45.620;4.920;2023-11-18T14:38:40;2.10;;;0.80;;
59734;SDS011;64362;45.620;4.920;2023-11-18T14:41:05;1.50;;;0.95;;
59734;SDS011;64362;45.620;4.920;2023-11-18T14:43:33;1.50;;;1.13;;
59734;SDS011;64362;45.620;4.920;2023-11-18T14:45:59;1.83;;;1.00;;
59734;SDS011;64362;45.620;4.920;2023-11-18T14:48:24;2.08;;;1.25;;
59734;SDS011;64362;45.620;4.920;2023-11-18T14:50:50;2.03;;;1.00;;
59734;SDS011;64362;45.620;4.920;2023-11-18T14:53:15;1.92;;;0.80;;
59734;SDS011;64362;45.620;4.920;2023-11-18T14:55:41;1.88;;;0.90;;
59734;SDS011;64362;45.620;4.920;2023-11-18T14:58:07;1.65;;;0.90;;
59734;SDS011;64362;45.620;4.920;2023-11-18T15:00:32;1.60;;;1.00;;
59734;SDS011;64362;45.620;4.920;2023-11-18T15:02:59;1.48;;;0.90;;
59734;SDS011;64362;45.620;4.920;2023-11-18T15:05:25;1.73;;;0.98;;
59734;SDS011;64362;45.620;4.920;2023-11-18T15:07:52;1.77;;;1.00;;
59734;SDS011;64362;45.620;4.920;2023-11-18T15:10:24;1.30;;;0.70;;
59734;SDS011;64362;45.620;4.920;2023-11-18T15:12:51;1.45;;;0.77;;
59734;SDS011;64362;45.620;4.920;2023-11-18T15:15:22;1.38;;;0.77;;
59734;SDS011;64362;45.620;4.920;2023-11-18T15:17:48;1.75;;;0.90;;
59734;SDS011;64362;45.620;4.920;2023-11-18T15:20:14;1.50;;;0.90;;